Terminal Aerodrome Forecast
Issued by NWS Portland, OR

Home | Current Version | Previous Version | Text Only | Print | Product List | Glossary On
Versions: 1 2 3 4 5 6 7 8 9 10 11 12 13 14 15 16 17
000
FTUS46 KPQR 290536
TAFTTD
TAF
KTTD 290536Z 2906/3006 29004KT P6SM BKN060
     FM291200 26003KT P6SM SCT020 OVC050
      TEMPO 2912/2916 BKN020 OVC050
     FM291800 30006KT P6SM BKN045
     FM292200 30007KT P6SM SCT050=

USA.gov is the U.S. government's official web portal to all federal, state and local government web resources and services.